Time;durP1;ratioP1;P1;durP2;ratioP2;P2;SDS_P1;SDS_P2;PMS_P1;PMS_P2;Temp;Humidity;BMP_temperature;BMP_pressure;BME280_temperature;BME280_humidity;BME280_pressure;Samples;Min_cycle;Max_cycle;Signal;HPM_P1;HPM_P2
2022/01/06 00:04:31;;;;;;;105.07;80.78;;;;;;;;;;6233701;22;20020;-79
2022/01/06 00:06:57;;;;;;;182.75;134.45;;;;;;;;;;6258005;23;20012;-80
2022/01/06 00:09:26;;;;;;;200.75;154.43;;;;;;;;;;6258147;23;20004;-79
2022/01/06 00:12:12;;;;;;;189.85;147.98;;;;;;;;;;6258365;23;20051;-83
2022/01/06 00:17:58;;;;;;;188.60;147.35;;;;;;;;;;6196504;23;20008;-79
2022/01/06 00:25:57;;;;;;;111.90;92.68;;;;;;;;;;6257383;23;20340;-79
2022/01/06 00:28:23;;;;;;;105.85;80.35;;;;;;;;;;6229405;23;20014;-80
2022/01/06 00:30:59;;;;;;;112.43;84.68;;;;;;;;;;6256453;23;20008;-79
2022/01/06 00:33:33;;;;;;;120.60;98.30;;;;;;;;;;6256824;23;20054;-80
2022/01/06 00:36:01;;;;;;;104.70;80.22;;;;;;;;;;6257141;23;20004;-82
2022/01/06 00:42:00;;;;;;;;;;;;;;;;;;;;;
2022/01/06 00:51:10;;;;;;;;;;;;;;;;;;;;;
2022/01/06 01:19:08;;;;;;;;;;;;;;;;;;;;;
2022/01/06 01:28:06;;;;;;;89.47;68.50;;;;;;;;;;5826035;24;20026;-81
2022/01/06 01:34:09;;;;;;;;;;;;;;;;;;;;;
2022/01/06 01:40:06;;;;;;;59.25;45.40;;;;;;;;;;5961687;24;20017;-84
2022/01/06 01:55:29;;;;;;;;;;;;;;;;;;;;;
2022/01/06 02:01:54;;;;;;;;;;;;;;;;;;;;;
2022/01/06 02:10:25;;;;;;;;;;;;;;;;;;;;;
2022/01/06 02:46:43;;;;;;;;;;;;;;;;;;;;;
2022/01/06 02:49:30;;;;;;;;;;;;;;;;;;;;;
2022/01/06 02:55:35;;;;;;;;;;;;;;;;;;;;;
2022/01/06 02:58:32;;;;;;;;;;;;;;;;;;;;;
2022/01/06 03:13:26;;;;;;;83.15;59.80;;;;;;;;;;6162012;23;20373;-78
2022/01/06 03:16:21;;;;;;;88.35;63.83;;;;;;;;;;6225542;23;20438;-81
2022/01/06 03:22:30;;;;;;;;;;;;;;;;;;;;;
2022/01/06 03:34:31;;;;;;;;;;;;;;;;;;;;;
2022/01/06 03:40:43;;;;;;;;;;;;;;;;;;;;;
2022/01/06 03:46:38;;;;;;;182.05;135.50;;;;;;;;;;6160075;23;20011;-78
2022/01/06 03:52:24;;;;;;;;;;;;;;;;;;;;;
2022/01/06 03:55:13;;;;;;;139.82;93.30;;;;;;;;;;6228437;23;20388;-80
2022/01/06 04:01:03;;;;;;;86.55;60.00;;;;;;;;;;6182030;23;20009;-79
2022/01/06 04:04:20;;;;;;;;;;;;;;;;;;;;;
2022/01/06 04:16:12;;;;;;;;;;;;;;;;;;;;;
2022/01/06 04:19:12;;;;;;;;;;;;;;;;;;;;;
2022/01/06 04:37:27;;;;;;;51.20;34.03;;;;;;;;;;6049640;23;20010;-82
2022/01/06 04:42:58;;;;;;;46.92;34.03;;;;;;;;;;6118120;23;20097;-83
2022/01/06 04:45:25;;;;;;;54.70;37.72;;;;;;;;;;6164547;23;20013;-81
2022/01/06 04:47:51;;;;;;;113.70;75.82;;;;;;;;;;6218793;23;20008;-80
2022/01/06 04:50:17;;;;;;;65.72;48.15;;;;;;;;;;6219236;23;20009;-84
2022/01/06 04:52:48;;;;;;;50.50;39.33;;;;;;;;;;6218825;23;20340;-81
2022/01/06 04:55:21;;;;;;;51.47;36.28;;;;;;;;;;6218638;23;20331;-83
2022/01/06 05:01:03;;;;;;;48.63;36.15;;;;;;;;;;6218111;23;20004;-83
2022/01/06 05:07:03;;;;;;;;;;;;;;;;;;;;;
2022/01/06 05:10:21;;;;;;;;;;;;;;;;;;;;;
2022/01/06 05:25:21;;;;;;;;;;;;;;;;;;;;;
2022/01/06 05:27:58;;;;;;;77.55;54.05;;;;;;;;;;6216692;23;20504;-82
2022/01/06 05:33:41;;;;;;;;;;;;;;;;;;;;;
2022/01/06 05:42:10;;;;;;;;;;;;;;;;;;;;;
2022/01/06 05:57:27;;;;;;;;;;;;;;;;;;;;;
2022/01/06 06:06:39;;;;;;;;;;;;;;;;;;;;;
2022/01/06 06:12:27;;;;;;;56.10;41.90;;;;;;;;;;5954860;24;20016;-81
2022/01/06 06:24:44;;;;;;;106.65;75.97;;;;;;;;;;5960630;24;20038;-81
2022/01/06 06:27:36;;;;;;;105.43;73.30;;;;;;;;;;5999338;23;20355;-81
2022/01/06 06:39:52;;;;;;;;;;;;;;;;;;;;;
2022/01/06 06:48:29;;;;;;;;;;;;;;;;;;;;;
2022/01/06 06:51:13;;;;;;;72.38;48.30;;;;;;;;;;6154536;23;20532;-81
2022/01/06 06:57:16;;;;;;;;;;;;;;;;;;;;;
2022/01/06 07:05:36;;;;;;;158.32;108.75;;;;;;;;;;6213682;23;20059;-81
2022/01/06 07:08:03;;;;;;;166.43;116.70;;;;;;;;;;6235073;23;20099;-81
2022/01/06 07:10:29;;;;;;;163.52;120.18;;;;;;;;;;6218973;23;20400;-83
2022/01/06 07:12:55;;;;;;;281.73;197.30;;;;;;;;;;6220423;23;20428;-81
2022/01/06 07:15:23;;;;;;;140.75;101.25;;;;;;;;;;6247369;23;20082;-81
2022/01/06 07:17:49;;;;;;;109.03;78.53;;;;;;;;;;6247641;23;20007;-81
2022/01/06 07:20:18;;;;;;;114.80;83.07;;;;;;;;;;6247907;23;20004;-82
2022/01/06 07:22:46;;;;;;;95.80;73.20;;;;;;;;;;6222323;23;20087;-83
2022/01/06 07:25:15;;;;;;;89.95;71.10;;;;;;;;;;6248951;23;20000;-82
2022/01/06 07:27:44;;;;;;;86.82;67.72;;;;;;;;;;6248450;23;20031;-81
2022/01/06 07:30:15;;;;;;;83.10;65.03;;;;;;;;;;6248592;23;20072;-81
2022/01/06 08:04:11;;;;;;;;;;;;;;;;;;;;;
2022/01/06 08:21:52;;;;;;;;;;;;;;;;;;;;;
2022/01/06 08:36:55;;;;;;;;;;;;;;;;;;;;;
2022/01/06 08:39:51;;;;;;;;;;;;;;;;;;;;;
2022/01/06 08:45:37;;;;;;;;;;;;;;;;;;;;;
2022/01/06 08:54:44;;;;;;;;;;;;;;;;;;;;;
2022/01/06 08:57:22;;;;;;;;;;;;;;;;;;6122796;23;20421;-83
2022/01/06 09:00:02;;;;;;;52.20;39.47;;;;;;;;;;6123945;23;19905;-83
2022/01/06 09:10:51;;;;;;;28.67;21.88;;;;;;;;;;6247645;22;20020;-82
2022/01/06 09:13:17;;;;;;;33.25;24.65;;;;;;;;;;6190183;23;20079;-82
2022/01/06 09:15:43;;;;;;;30.00;23.35;;;;;;;;;;6216137;23;20015;-83
2022/01/06 09:18:09;;;;;;;28.27;22.23;;;;;;;;;;6217221;23;20106;-81
2022/01/06 09:20:36;;;;;;;29.95;22.95;;;;;;;;;;6216456;23;20028;-80
2022/01/06 09:23:02;;;;;;;28.58;22.00;;;;;;;;;;6190821;23;20020;-81
2022/01/06 09:25:28;;;;;;;22.30;17.73;;;;;;;;;;6217033;23;20000;-83
2022/01/06 09:27:57;;;;;;;21.48;15.98;;;;;;;;;;6216806;23;20458;-81
2022/01/06 09:30:27;;;;;;;24.13;18.67;;;;;;;;;;6218407;23;20027;-82
2022/01/06 09:32:58;;;;;;;22.35;17.20;;;;;;;;;;6217651;23;20309;-81
2022/01/06 09:35:47;;;;;;;28.83;19.48;;;;;;;;;;6191465;23;20012;-82
2022/01/06 09:38:52;;;;;;;;;;;;;;;;;;;;;
2022/01/06 09:41:30;;;;;;;22.45;16.35;;;;;;;;;;6207041;23;20011;-80
2022/01/06 10:03:02;;;;;;;18.65;14.63;;;;;;;;;;5977164;24;20012;-82
2022/01/06 10:18:46;;;;;;;;;;;;;;;;;;;;;
2022/01/06 10:21:49;;;;;;;;;;;;;;;;;;;;;
2022/01/06 10:27:52;;;;;;;23.17;15.98;;;;;;;;;;6011642;23;20046;-81
2022/01/06 10:30:48;;;;;;;;;;;;;;;;;;;;;
2022/01/06 10:52:04;;;;;;;;;;;;;;;;;;;;;
2022/01/06 11:01:03;;;;;;;;;;;;;;;;;;;;;
2022/01/06 11:03:46;;;;;;;;;;;;;;;;;;;;;
2022/01/06 11:21:58;;;;;;;;;;;;;;;;;;;;;
2022/01/06 11:36:56;;;;;;;18.05;13.27;;;;;;;;;;5955778;24;20501;-79
2022/01/06 11:39:46;;;;;;;21.60;17.60;;;;;;;;;;5956065;23;20020;-81
2022/01/06 11:48:46;;;;;;;;;;;;;;;;;;;;;
2022/01/06 11:51:39;;;;;;;17.08;11.35;;;;;;;;;;6001744;23;20090;-80
2022/01/06 12:06:57;;;;;;;;;;;;;;;;;;;;;
2022/01/06 12:22:20;;;;;;;;;;;;;;;;;;;;;
2022/01/06 12:43:55;;;;;;;;;;;;;;;;;;;;;
2022/01/06 12:59:23;;;;;;;11.85;9.40;;;;;;;;;;6034107;23;20018;-79
2022/01/06 13:08:14;;;;;;;;;;;;;;;;;;;;;
2022/01/06 13:13:56;;;;;;;14.52;12.05;;;;;;;;;;6010670;23;20048;-82
2022/01/06 13:25:21;;;;;;;11.40;9.52;;;;;;;;;;6086252;23;20016;-80
2022/01/06 13:28:07;;;;;;;;;;;;;;;;;;;;;
2022/01/06 13:30:47;;;;;;;;;;;;;;;;;;;;;
2022/01/06 13:58:17;;;;;;;;;;;;;;;;;;;;;
2022/01/06 14:19:03;;;;;;;15.57;11.70;;;;;;;;;;5926780;24;20028;-80
2022/01/06 14:34:07;;;;;;;11.10;8.90;;;;;;;;;;5880489;24;20075;-78
2022/01/06 14:45:50;;;;;;;11.50;9.10;;;;;;;;;;5908719;24;20490;-82
2022/01/06 15:19:06;;;;;;;;;;;;;;;;;;;;;
2022/01/06 15:21:33;;;;;;;25.77;20.98;;;;;;;;;;6090230;23;20066;-79
2022/01/06 15:24:02;;;;;;;15.15;12.43;;;;;;;;;;6190097;23;20352;-78
2022/01/06 15:26:31;;;;;;;15.05;11.63;;;;;;;;;;6224902;23;20023;-79
2022/01/06 15:28:59;;;;;;;13.98;10.68;;;;;;;;;;6217885;23;20031;-80
2022/01/06 15:34:55;;;;;;;49.42;29.05;;;;;;;;;;6126259;23;20014;-80
2022/01/06 15:40:43;;;;;;;;;;;;;;;;;;;;;
2022/01/06 15:43:48;;;;;;;;;;;;;;;;;;;;;
2022/01/06 15:46:53;;;;;;;;;;;;;;;;;;;;;
2022/01/06 15:49:30;;;;;;;;;;;;;;;;;;;;;
2022/01/06 15:51:56;;;;;;;27.00;17.48;;;;;;;;;;6205021;23;20107;-80
2022/01/06 15:54:23;;;;;;;21.58;15.52;;;;;;;;;;6218989;23;20034;-81
2022/01/06 15:57:10;;;;;;;;;;;;;;;;;;;;;
2022/01/06 15:59:51;;;;;;;;;;;;;;;;;;;;;
2022/01/06 16:05:16;;;;;;;67.85;45.55;;;;;;;;;;6217631;23;20502;-78
2022/01/06 16:07:48;;;;;;;85.53;61.28;;;;;;;;;;6191397;23;20084;-78
2022/01/06 16:10:15;;;;;;;82.05;56.08;;;;;;;;;;6191687;23;20444;-78
2022/01/06 16:12:41;;;;;;;48.85;35.72;;;;;;;;;;6244512;23;20066;-81
2022/01/06 16:15:08;;;;;;;40.78;30.35;;;;;;;;;;6248558;23;20011;-78
2022/01/06 16:17:34;;;;;;;67.32;49.58;;;;;;;;;;6248822;23;20436;-78
2022/01/06 16:20:00;;;;;;;117.85;81.25;;;;;;;;;;6249955;23;20083;-79
2022/01/06 16:22:28;;;;;;;74.68;55.67;;;;;;;;;;6248122;23;20098;-79
2022/01/06 16:24:55;;;;;;;61.90;48.45;;;;;;;;;;6219800;23;20011;-80
2022/01/06 16:27:21;;;;;;;81.22;61.30;;;;;;;;;;6246888;23;20447;-81
2022/01/06 16:29:49;;;;;;;81.45;59.88;;;;;;;;;;6246457;23;20423;-79
2022/01/06 16:32:18;;;;;;;78.43;62.38;;;;;;;;;;6246629;23;20187;-77
2022/01/06 16:34:44;;;;;;;111.43;84.43;;;;;;;;;;6246491;23;20068;-79
2022/01/06 16:37:12;;;;;;;119.57;93.80;;;;;;;;;;6247210;23;20376;-81
2022/01/06 16:39:43;;;;;;;57.88;43.65;;;;;;;;;;6247654;23;20479;-79
2022/01/06 16:44:57;;;;;;;87.60;68.22;;;;;;;;;;6246961;23;20019;-78
2022/01/06 16:47:23;;;;;;;97.13;73.38;;;;;;;;;;6246428;23;20004;-78
2022/01/06 16:49:49;;;;;;;95.47;75.85;;;;;;;;;;6219993;23;20186;-80
2022/01/06 16:52:15;;;;;;;93.20;70.85;;;;;;;;;;6246144;23;20363;-77
2022/01/06 16:54:41;;;;;;;95.65;72.97;;;;;;;;;;6246877;23;20470;-80
2022/01/06 16:57:10;;;;;;;84.75;63.40;;;;;;;;;;6251621;23;20427;-83
2022/01/06 16:59:38;;;;;;;82.28;59.80;;;;;;;;;;6251138;23;20000;-81
2022/01/06 17:02:07;;;;;;;76.35;57.20;;;;;;;;;;6251217;23;19996;-80
2022/01/06 17:14:02;;;;;;;;;;;;;;;;;;;;;
2022/01/06 17:17:19;;;;;;;;;;;;;;;;;;;;;
2022/01/06 17:19:47;;;;;;;;;;;;;;;;;;;;;
2022/01/06 17:22:34;;;;;;;63.97;44.75;;;;;;;;;;6091295;23;20100;-79
2022/01/06 17:34:32;;;;;;;;;;;;;;;;;;;;;
2022/01/06 17:37:20;;;;;;;40.47;30.75;;;;;;;;;;5930517;24;20404;-80
2022/01/06 18:01:45;;;;;;;;;;;;;;;;;;;;;
2022/01/06 18:04:45;;;;;;;;;;;;;;;;;;;;;
2022/01/06 18:14:01;;;;;;;;;;;;;;;;;;;;;
2022/01/06 18:16:50;;;;;;;47.92;38.10;;;;;;;;;;6029906;23;20062;-81
2022/01/06 18:22:50;;;;;;;37.97;29.08;;;;;;;;;;6061626;23;20438;-79
2022/01/06 18:28:55;;;;;;;;;;;;;;;;;;;;;
2022/01/06 18:44:59;;;;;;;22.67;17.23;;;;;;;;;;6245173;22;20046;-80
2022/01/06 18:47:31;;;;;;;22.25;15.55;;;;;;;;;;6245770;23;20020;-81
2022/01/06 18:50:00;;;;;;;23.10;17.55;;;;;;;;;;6219176;23;20415;-81
2022/01/06 18:52:43;;;;;;;;;;;;;;;;;;;;;
2022/01/06 19:04:19;;;;;;;;;;;;;;;;;;;;;
2022/01/06 19:10:20;;;;;;;;;;;;;;;;;;;;;
2022/01/06 19:12:51;;;;;;;17.90;12.98;;;;;;;;;;6245499;23;20130;-82
2022/01/06 19:15:56;;;;;;;;;;;;;;;;;;;;;
2022/01/06 19:22:08;;;;;;;;;;;;;;;;;;;;;
2022/01/06 19:33:42;;;;;;;18.45;13.60;;;;;;;;;;6177294;23;20004;-82
2022/01/06 19:36:26;;;;;;;;;;;;;;;;;;;;;
2022/01/06 19:42:19;;;;;;;;;;;;;;;;;;;;;
2022/01/06 19:45:27;;;;;;;;;;;;;;;;;;;;;
2022/01/06 19:51:37;;;;;;;15.13;12.25;;;;;;;;;;6167538;23;20008;-81
2022/01/06 19:54:42;;;;;;;;;;;;;;;;;;;;;
2022/01/06 20:00:23;;;;;;;14.15;10.30;;;;;;;;;;6155643;23;20009;-81
2022/01/06 20:02:53;;;;;;;18.08;11.68;;;;;;;;;;6217517;23;20012;-79
2022/01/06 20:05:52;;;;;;;;;;;;;;;;;;;;;
2022/01/06 20:08:21;;;;;;;16.42;11.93;;;;;;;;;;6217773;23;20076;-78
2022/01/06 20:11:16;;;;;;;12.88;11.20;;;;;;;;;;6217132;23;20009;-81
2022/01/06 20:29:01;;;;;;;;;;;;;;;;;;;;;
2022/01/06 20:31:46;;;;;;;12.48;9.55;;;;;;;;;;6064616;23;20030;-79
2022/01/06 20:34:12;;;;;;;13.27;8.32;;;;;;;;;;6065694;23;20046;-78
2022/01/06 20:36:45;;;;;;;10.52;7.72;;;;;;;;;;6138184;23;20371;-78
2022/01/06 20:39:19;;;;;;;16.38;10.43;;;;;;;;;;6215788;23;20028;-77
2022/01/06 20:41:47;;;;;;;14.82;10.00;;;;;;;;;;6215672;23;20008;-79
2022/01/06 20:44:25;;;;;;;13.48;9.43;;;;;;;;;;6216102;23;20324;-81
2022/01/06 20:46:57;;;;;;;15.32;10.68;;;;;;;;;;6209809;23;20024;-80
2022/01/06 20:52:10;;;;;;;11.75;9.63;;;;;;;;;;6216288;23;20451;-80
2022/01/06 20:54:37;;;;;;;12.20;7.65;;;;;;;;;;6215493;23;20044;-80
2022/01/06 20:57:03;;;;;;;13.52;9.45;;;;;;;;;;6215417;23;20015;-82
2022/01/06 20:59:30;;;;;;;11.48;9.23;;;;;;;;;;6215880;23;20075;-79
2022/01/06 21:01:56;;;;;;;12.95;9.48;;;;;;;;;;6215427;23;20107;-80
2022/01/06 21:04:22;;;;;;;12.73;8.70;;;;;;;;;;6215628;23;20000;-79
2022/01/06 21:06:48;;;;;;;10.52;8.73;;;;;;;;;;6215107;23;20427;-79
2022/01/06 21:09:15;;;;;;;11.55;7.68;;;;;;;;;;6215456;23;20013;-80
2022/01/06 21:11:41;;;;;;;11.35;8.45;;;;;;;;;;6215123;23;20004;-78
2022/01/06 21:14:12;;;;;;;12.10;9.65;;;;;;;;;;6215234;23;20067;-81
2022/01/06 21:16:38;;;;;;;14.10;9.30;;;;;;;;;;6215569;23;20072;-81
2022/01/06 21:19:24;;;;;;;11.88;8.25;;;;;;;;;;6215222;23;19997;-82
2022/01/06 21:21:53;;;;;;;10.63;8.20;;;;;;;;;;6215726;23;20005;-79
2022/01/06 21:24:19;;;;;;;10.05;7.90;;;;;;;;;;6215446;23;19992;-79
2022/01/06 21:26:48;;;;;;;10.20;7.10;;;;;;;;;;6215131;23;20071;-79
2022/01/06 21:29:14;;;;;;;7.93;6.10;;;;;;;;;;6215200;23;20425;-79
2022/01/06 21:31:43;;;;;;;10.38;6.45;;;;;;;;;;6215163;23;20012;-80
2022/01/06 21:34:12;;;;;;;9.77;7.05;;;;;;;;;;6215738;23;20044;-80
2022/01/06 21:36:38;;;;;;;9.75;7.68;;;;;;;;;;6215410;23;20001;-80
2022/01/06 21:39:06;;;;;;;7.43;6.45;;;;;;;;;;6215384;23;20467;-79
2022/01/06 21:41:35;;;;;;;9.18;6.30;;;;;;;;;;6215207;23;20001;-79
2022/01/06 21:44:01;;;;;;;8.60;5.93;;;;;;;;;;6215334;23;19996;-77
2022/01/06 21:46:30;;;;;;;8.93;7.25;;;;;;;;;;6235699;23;20043;-77
2022/01/06 21:48:56;;;;;;;10.05;6.88;;;;;;;;;;6245348;23;20300;-78
2022/01/06 21:51:23;;;;;;;10.38;6.30;;;;;;;;;;6245651;23;20000;-78
2022/01/06 21:53:52;;;;;;;13.32;7.07;;;;;;;;;;6245625;23;20432;-79
2022/01/06 21:56:20;;;;;;;9.45;7.03;;;;;;;;;;6245615;23;20000;-77
2022/01/06 21:58:49;;;;;;;8.75;6.82;;;;;;;;;;6245433;23;20023;-78
2022/01/06 22:01:16;;;;;;;9.27;6.45;;;;;;;;;;6245633;23;20027;-78
2022/01/06 22:03:42;;;;;;;6.70;5.57;;;;;;;;;;6245554;23;20004;-78
2022/01/06 22:06:11;;;;;;;8.57;6.40;;;;;;;;;;6245432;23;20428;-76
2022/01/06 22:08:45;;;;;;;7.65;6.10;;;;;;;;;;6245014;23;20027;-79
2022/01/06 22:11:11;;;;;;;7.17;5.53;;;;;;;;;;6245883;23;20067;-78
2022/01/06 22:13:40;;;;;;;9.00;6.90;;;;;;;;;;6245342;23;20012;-77
2022/01/06 22:16:15;;;;;;;8.63;6.38;;;;;;;;;;6245343;23;20000;-78
2022/01/06 22:18:44;;;;;;;7.65;6.30;;;;;;;;;;6245573;23;20309;-77
2022/01/06 22:21:13;;;;;;;7.60;6.20;;;;;;;;;;6244952;23;20000;-76
2022/01/06 22:23:47;;;;;;;7.82;6.53;;;;;;;;;;6218391;23;20028;-78
2022/01/06 22:26:15;;;;;;;7.50;5.93;;;;;;;;;;6245454;23;20004;-76
2022/01/06 22:28:49;;;;;;;7.90;4.70;;;;;;;;;;6218784;23;20330;-78
2022/01/06 22:31:15;;;;;;;7.88;5.68;;;;;;;;;;6245010;23;20004;-81
2022/01/06 22:33:44;;;;;;;5.93;5.18;;;;;;;;;;6245318;23;20343;-77
2022/01/06 22:36:10;;;;;;;6.82;5.47;;;;;;;;;;6245078;23;20004;-79
2022/01/06 22:38:36;;;;;;;6.47;5.57;;;;;;;;;;6218508;23;20008;-77
2022/01/06 22:41:03;;;;;;;7.60;4.82;;;;;;;;;;6245131;23;20080;-79
2022/01/06 22:43:29;;;;;;;7.78;5.95;;;;;;;;;;6245319;23;20435;-77
2022/01/06 22:45:58;;;;;;;10.82;5.38;;;;;;;;;;6244595;23;20016;-83
2022/01/06 22:48:24;;;;;;;5.38;4.15;;;;;;;;;;6245712;23;20013;-77
2022/01/06 22:50:53;;;;;;;14.13;5.88;;;;;;;;;;6219283;23;20300;-77
2022/01/06 22:53:19;;;;;;;7.70;5.07;;;;;;;;;;6247413;23;20008;-78
2022/01/06 22:55:46;;;;;;;6.72;5.35;;;;;;;;;;6247409;23;20075;-78
2022/01/06 22:58:13;;;;;;;8.23;5.20;;;;;;;;;;6247296;23;20004;-79
2022/01/06 23:00:40;;;;;;;9.63;6.53;;;;;;;;;;6247402;23;20004;-76
2022/01/06 23:03:06;;;;;;;6.20;5.07;;;;;;;;;;6247660;23;20000;-78
2022/01/06 23:05:36;;;;;;;7.95;6.35;;;;;;;;;;6246951;23;20072;-81
2022/01/06 23:08:02;;;;;;;8.20;5.38;;;;;;;;;;6247120;23;20089;-78
2022/01/06 23:10:29;;;;;;;7.45;6.53;;;;;;;;;;6247763;23;20004;-79
2022/01/06 23:12:58;;;;;;;6.45;5.32;;;;;;;;;;6247108;23;20007;-83
2022/01/06 23:15:27;;;;;;;7.15;4.70;;;;;;;;;;6195432;23;20371;-75
2022/01/06 23:17:54;;;;;;;6.88;4.40;;;;;;;;;;6247447;23;20039;-80
2022/01/06 23:20:20;;;;;;;7.00;5.28;;;;;;;;;;6247269;23;20004;-77
2022/01/06 23:22:46;;;;;;;9.70;5.55;;;;;;;;;;6246917;23;20412;-78
2022/01/06 23:25:16;;;;;;;5.88;5.20;;;;;;;;;;6246933;23;20006;-78
2022/01/06 23:27:42;;;;;;;6.72;5.63;;;;;;;;;;6247351;23;20008;-83
2022/01/06 23:30:11;;;;;;;6.47;4.88;;;;;;;;;;6247382;23;20010;-82
2022/01/06 23:32:40;;;;;;;6.65;4.82;;;;;;;;;;6246865;23;20328;-76
2022/01/06 23:35:07;;;;;;;7.57;5.00;;;;;;;;;;6219763;23;20043;-73
2022/01/06 23:37:33;;;;;;;6.10;4.03;;;;;;;;;;6247429;23;20371;-82
2022/01/06 23:40:00;;;;;;;7.15;4.50;;;;;;;;;;6247196;23;20366;-76
2022/01/06 23:42:26;;;;;;;8.48;6.68;;;;;;;;;;6248348;23;20014;-77
2022/01/06 23:44:55;;;;;;;7.10;4.45;;;;;;;;;;6246566;23;20027;-80
2022/01/06 23:47:21;;;;;;;8.63;4.80;;;;;;;;;;6247111;23;20079;-79
2022/01/06 23:49:47;;;;;;;5.82;5.18;;;;;;;;;;6246662;23;20058;-78
2022/01/06 23:52:24;;;;;;;6.47;5.05;;;;;;;;;;6247137;23;20371;-77
2022/01/06 23:54:50;;;;;;;4.28;3.72;;;;;;;;;;6219548;23;20019;-80
2022/01/06 23:57:19;;;;;;;4.97;4.15;;;;;;;;;;6246848;23;19996;-76
2022/01/06 23:59:49;;;;;;;6.03;4.75;;;;;;;;;;6246414;23;20036;-80
